Etusivu
METAR-TAF:

METAR-TAF

Lentoasemat :

Chambéry / Aix-les-Bains, Ranska

Leveyspiiri: 45-39N, Pituuspiiri: 005-53E, korkeus merenpinnasta: 235 m

Tämänhetkinen sää

Tämä raportti tehtiin 7 tuntia ja 42 minuuttia sitten, kello 19.30 UTC
Tuuli 2 kn eri suunnista
Lämpötila 16°C
Kosteus 88%
Ilmanpaine 1016 hPa
Näkyvyys 10 km tai enemmän

METAR: LFLB 251930Z AUTO VRB02KT 9999 BKN068/// BKN086/// OVC110/// ///CB 16/14 Q1016

Aika: 05:12 (03:12 UTC)

Sääennuste

Tämä raportti tehtiin 4 tuntia ja 12 minuuttia sitten, kello 23.00 UTC
Ennuste voimassa 26. päivästä klo 00 UTC - 26. päivään klo 24 UTC
Tuuli 8 kn pohjoisen/luoteesta
Näkyvyys 10 km tai enemmän
Muutamia pilviä 3000 ft:n korkeudessa
Hajonneita pilviä 6000 ft:n korkeudessa

TAF: LFLB 252300Z 2600/2624 34008KT 9999 FEW030 BKN060

Säähavainnot ja -ennusteet yli 4000 lentoasemalta (METAR- ja TAF-raportit).

Käytössä olevat sääasemat on merkitty karttaan keltaisilla ja punaisilla pisteillä.

Aseta hiiri pisteen päälle nähdäksesi sääaseman nimen.

Klikkaa sitten nähdäksesi säähavainnot ja -ennusteet.

Kartan vaihtaminen: klikkaa mustalla rastilla varustettuja vihreitä pisteitä, niin voit zoomata sisään; viivalla varustettua vihreää pistettä, niin voit zoomata ulos tai vihreitä nuolia, niin pääset viereisille kartoille.


METAR-TAF: